Time;durP1;ratioP1;P1;durP2;ratioP2;P2;SDS_P1;SDS_P2;PMS_P1;PMS_P2;Temp;Humidity;BMP_temperature;BMP_pressure;BME280_temperature;BME280_humidity;BME280_pressure;Samples;Min_cycle;Max_cycle;Signal;HPM_P1;HPM_P2
2023/08/01 00:00:30;;;;;;;2.13;1.40;;;;;;;;;;5026976;28;20431;-58
2023/08/01 00:02:58;;;;;;;2.92;1.20;;;;;;;;;;5026211;28;20419;-58
2023/08/01 00:05:25;;;;;;;1.90;1.40;;;;;;;;;;5024451;28;20428;-58
2023/08/01 00:07:53;;;;;;;1.45;1.20;;;;;;;;;;5023009;28;20474;-58
2023/08/01 00:10:20;;;;;;;1.50;1.30;;;;;;;;;;5026466;28;20414;-55
2023/08/01 00:12:47;;;;;;;3.53;1.40;;;;;;;;;;5027500;28;20928;-58
2023/08/01 00:15:14;;;;;;;2.30;1.40;;;;;;;;;;5024658;28;20424;-57
2023/08/01 00:17:41;;;;;;;1.80;1.38;;;;;;;;;;5023286;28;20469;-57
2023/08/01 00:20:10;;;;;;;3.20;1.52;;;;;;;;;;5027181;28;20436;-57
2023/08/01 00:22:37;;;;;;;2.30;1.33;;;;;;;;;;5026411;28;20427;-58
2023/08/01 00:25:04;;;;;;;1.80;1.20;;;;;;;;;;5027958;28;20477;-58
2023/08/01 00:27:32;;;;;;;2.10;1.40;;;;;;;;;;5023244;28;20449;-58
2023/08/01 00:29:59;;;;;;;1.95;1.48;;;;;;;;;;5025150;28;20416;-57
2023/08/01 00:32:26;;;;;;;3.53;1.60;;;;;;;;;;5024424;28;20488;-57
2023/08/01 00:34:53;;;;;;;5.03;1.75;;;;;;;;;;5025417;28;20481;-57
2023/08/01 00:37:21;;;;;;;3.00;1.90;;;;;;;;;;5022063;28;20836;-57
2023/08/01 00:39:48;;;;;;;2.15;1.77;;;;;;;;;;5025093;28;20441;-57
2023/08/01 00:42:15;;;;;;;2.10;1.20;;;;;;;;;;5033426;28;20421;-57
2023/08/01 00:44:42;;;;;;;1.55;1.00;;;;;;;;;;5027441;28;20771;-57
2023/08/01 00:47:10;;;;;;;1.42;1.00;;;;;;;;;;5022048;28;20466;-58
2023/08/01 00:49:37;;;;;;;2.33;1.33;;;;;;;;;;5027023;28;20442;-56
2023/08/01 00:52:04;;;;;;;2.90;1.50;;;;;;;;;;5021455;28;20420;-56
2023/08/01 00:54:36;;;;;;;3.08;1.83;;;;;;;;;;5026491;28;20480;-56
2023/08/01 00:57:03;;;;;;;5.70;1.73;;;;;;;;;;5023737;28;20412;-58
2023/08/01 00:59:30;;;;;;;5.50;2.00;;;;;;;;;;5027853;28;20947;-57
2023/08/01 01:01:57;;;;;;;3.50;2.20;;;;;;;;;;5026700;28;20763;-58
2023/08/01 01:04:24;;;;;;;5.65;3.00;;;;;;;;;;5028589;28;20427;-57
2023/08/01 01:06:54;;;;;;;5.73;3.07;;;;;;;;;;5025505;28;20477;-57
2023/08/01 01:09:21;;;;;;;4.97;3.10;;;;;;;;;;5019613;28;20466;-57
2023/08/01 01:11:49;;;;;;;5.45;3.50;;;;;;;;;;5032272;28;20411;-56
2023/08/01 01:14:16;;;;;;;6.20;3.60;;;;;;;;;;5028657;28;20904;-58
2023/08/01 01:16:42;;;;;;;6.90;4.03;;;;;;;;;;5018574;28;20918;-58
2023/08/01 01:19:10;;;;;;;7.43;4.55;;;;;;;;;;5020528;28;20437;-54
2023/08/01 01:21:40;;;;;;;9.98;5.35;;;;;;;;;;5022574;28;20485;-57
2023/08/01 01:24:08;;;;;;;9.60;5.60;;;;;;;;;;5026290;28;20474;-57
2023/08/01 01:26:35;;;;;;;11.20;5.85;;;;;;;;;;5025725;28;20824;-56
2023/08/01 01:29:03;;;;;;;10.88;6.30;;;;;;;;;;5022877;28;20421;-57
2023/08/01 01:31:31;;;;;;;9.93;5.97;;;;;;;;;;5025277;28;20423;-58
2023/08/01 01:33:58;;;;;;;13.48;6.80;;;;;;;;;;5023303;28;20420;-55
2023/08/01 01:36:25;;;;;;;12.75;6.95;;;;;;;;;;5021657;28;20469;-58
2023/08/01 01:38:54;;;;;;;13.83;7.23;;;;;;;;;;5022314;28;20476;-58
2023/08/01 01:41:20;;;;;;;13.38;7.35;;;;;;;;;;5030742;28;20466;-56
2023/08/01 01:43:48;;;;;;;13.70;7.73;;;;;;;;;;5025912;28;20506;-55
2023/08/01 01:46:14;;;;;;;16.95;8.30;;;;;;;;;;5025127;28;20503;-58
2023/08/01 01:48:42;;;;;;;15.27;8.27;;;;;;;;;;5025745;28;20426;-54
2023/08/01 01:51:09;;;;;;;14.40;7.78;;;;;;;;;;5025658;28;20438;-55
2023/08/01 01:53:36;;;;;;;12.18;7.15;;;;;;;;;;5026333;28;20427;-58
2023/08/01 01:56:04;;;;;;;15.50;7.40;;;;;;;;;;5025049;28;20824;-54
2023/08/01 01:58:31;;;;;;;13.02;7.40;;;;;;;;;;5023821;28;20416;-55
2023/08/01 02:00:58;;;;;;;12.43;7.00;;;;;;;;;;5023938;28;20484;-57
2023/08/01 02:03:25;;;;;;;12.70;7.60;;;;;;;;;;5027310;28;20530;-54
2023/08/01 02:05:52;;;;;;;13.68;8.48;;;;;;;;;;5023095;28;20414;-58
2023/08/01 02:08:19;;;;;;;14.73;9.05;;;;;;;;;;5022805;28;20419;-56
2023/08/01 02:10:46;;;;;;;16.70;9.82;;;;;;;;;;5026021;28;20411;-56
2023/08/01 02:13:15;;;;;;;16.35;9.85;;;;;;;;;;5030735;28;20828;-58
2023/08/01 02:15:42;;;;;;;13.30;7.80;;;;;;;;;;5027928;28;20407;-57
2023/08/01 02:18:09;;;;;;;12.90;7.22;;;;;;;;;;5021092;28;20413;-56
2023/08/01 02:20:36;;;;;;;8.70;5.73;;;;;;;;;;5030990;28;20435;-56
2023/08/01 02:23:03;;;;;;;9.38;5.68;;;;;;;;;;5027333;28;20846;-56
2023/08/01 02:25:30;;;;;;;8.32;4.63;;;;;;;;;;5030420;28;20411;-54
2023/08/01 02:27:56;;;;;;;7.25;4.28;;;;;;;;;;5023442;28;20439;-56
2023/08/01 02:30:25;;;;;;;8.35;3.80;;;;;;;;;;5027856;28;20438;-57
2023/08/01 02:32:52;;;;;;;6.45;4.00;;;;;;;;;;5029277;28;20431;-58
2023/08/01 02:35:19;;;;;;;6.57;4.18;;;;;;;;;;5030091;28;20418;-57
2023/08/01 02:37:46;;;;;;;5.22;3.55;;;;;;;;;;5023840;28;20467;-55
2023/08/01 02:40:13;;;;;;;6.33;3.87;;;;;;;;;;5030106;28;20924;-57
2023/08/01 02:42:40;;;;;;;7.05;3.90;;;;;;;;;;5030235;28;20419;-57
2023/08/01 02:45:08;;;;;;;5.70;4.15;;;;;;;;;;5031607;28;20492;-57
2023/08/01 02:47:36;;;;;;;9.00;5.00;;;;;;;;;;5025770;28;20900;-56
2023/08/01 02:50:03;;;;;;;7.70;5.50;;;;;;;;;;5027522;28;20490;-57
2023/08/01 02:52:30;;;;;;;8.30;5.85;;;;;;;;;;5025669;28;20913;-56
2023/08/01 02:54:57;;;;;;;12.35;6.50;;;;;;;;;;5028264;28;20442;-57
2023/08/01 02:57:26;;;;;;;9.60;6.35;;;;;;;;;;5026309;28;20431;-55
2023/08/01 02:59:53;;;;;;;12.48;7.25;;;;;;;;;;5027501;28;20427;-56
2023/08/01 03:02:20;;;;;;;10.38;7.45;;;;;;;;;;5024928;28;20419;-58
2023/08/01 03:04:48;;;;;;;11.25;7.28;;;;;;;;;;5027125;28;20423;-59
2023/08/01 03:07:16;;;;;;;11.48;7.65;;;;;;;;;;5027281;28;20422;-56
2023/08/01 03:09:43;;;;;;;13.30;7.85;;;;;;;;;;5027613;28;20548;-58
2023/08/01 03:12:10;;;;;;;15.23;8.82;;;;;;;;;;5038350;28;20453;-57
2023/08/01 03:14:37;;;;;;;11.82;8.82;;;;;;;;;;5028706;28;20821;-58
2023/08/01 03:17:04;;;;;;;13.70;9.10;;;;;;;;;;5027023;28;20429;-58
2023/08/01 03:19:31;;;;;;;19.40;10.00;;;;;;;;;;5024885;28;20433;-56
2023/08/01 03:22:00;;;;;;;16.87;10.13;;;;;;;;;;5023864;28;20434;-57
2023/08/01 03:24:27;;;;;;;15.88;10.10;;;;;;;;;;5018383;28;20783;-59
2023/08/01 03:26:54;;;;;;;15.88;10.82;;;;;;;;;;5023577;28;20411;-55
2023/08/01 03:29:21;;;;;;;18.45;11.98;;;;;;;;;;5018779;28;20423;-58
2023/08/01 03:31:48;;;;;;;18.07;12.30;;;;;;;;;;5025358;28;20459;-58
2023/08/01 03:34:15;;;;;;;21.75;14.20;;;;;;;;;;5019420;28;20420;-57
2023/08/01 03:36:42;;;;;;;23.77;14.73;;;;;;;;;;5030327;28;20430;-57
2023/08/01 03:39:10;;;;;;;26.38;15.75;;;;;;;;;;5019554;28;20428;-58
2023/08/01 03:41:37;;;;;;;27.10;15.32;;;;;;;;;;5030670;28;20406;-58
2023/08/01 03:44:05;;;;;;;29.20;16.80;;;;;;;;;;5023426;28;20421;-58
2023/08/01 03:46:32;;;;;;;28.40;17.67;;;;;;;;;;5029605;28;20442;-58
2023/08/01 03:48:59;;;;;;;33.00;19.63;;;;;;;;;;5021394;28;20420;-57
2023/08/01 03:51:26;;;;;;;36.70;21.00;;;;;;;;;;5029518;28;20817;-58
2023/08/01 03:53:53;;;;;;;32.75;20.50;;;;;;;;;;5021722;28;20431;-56
2023/08/01 03:56:21;;;;;;;33.60;21.85;;;;;;;;;;5028070;28;20995;-58
2023/08/01 03:58:48;;;;;;;35.95;21.48;;;;;;;;;;5022845;28;20911;-58
2023/08/01 04:01:15;;;;;;;34.35;21.45;;;;;;;;;;5027468;28;20777;-57
2023/08/01 04:03:42;;;;;;;32.67;21.17;;;;;;;;;;5018259;28;20427;-58
2023/08/01 04:06:10;;;;;;;41.00;22.92;;;;;;;;;;5022742;28;20501;-59
2023/08/01 04:08:37;;;;;;;38.40;23.58;;;;;;;;;;5024390;28;20430;-55
2023/08/01 04:11:04;;;;;;;37.50;21.77;;;;;;;;;;5024780;28;20828;-58
2023/08/01 04:13:33;;;;;;;36.83;20.35;;;;;;;;;;5023479;28;20472;-56
2023/08/01 04:16:00;;;;;;;32.30;19.77;;;;;;;;;;5021131;28;20411;-58
2023/08/01 04:18:27;;;;;;;30.63;19.52;;;;;;;;;;5021829;28;20461;-59
2023/08/01 04:20:54;;;;;;;35.60;18.77;;;;;;;;;;5020820;28;20435;-59
2023/08/01 04:23:21;;;;;;;29.85;18.35;;;;;;;;;;5020345;28;21580;-59
2023/08/01 04:25:48;;;;;;;31.67;17.77;;;;;;;;;;5023914;28;20422;-58
2023/08/01 04:28:15;;;;;;;34.95;17.83;;;;;;;;;;5020156;28;20420;-57
2023/08/01 04:30:49;;;;;;;28.13;17.45;;;;;;;;;;5024418;28;20415;-59
2023/08/01 04:33:16;;;;;;;30.00;16.73;;;;;;;;;;5018611;28;20420;-58
2023/08/01 04:35:43;;;;;;;28.27;14.77;;;;;;;;;;5023394;28;20427;-58
2023/08/01 04:38:11;;;;;;;26.67;14.98;;;;;;;;;;5021475;28;20423;-58
2023/08/01 04:40:38;;;;;;;28.75;16.00;;;;;;;;;;5022139;28;20437;-57
2023/08/01 04:43:05;;;;;;;26.60;15.55;;;;;;;;;;5019008;28;20487;-58
2023/08/01 04:45:32;;;;;;;29.00;15.50;;;;;;;;;;5026928;28;20469;-58
2023/08/01 04:48:00;;;;;;;27.10;15.35;;;;;;;;;;5017360;28;20424;-57
2023/08/01 04:50:27;;;;;;;25.10;15.10;;;;;;;;;;5022877;28;20836;-57
2023/08/01 04:52:54;;;;;;;27.30;14.40;;;;;;;;;;5023984;28;20419;-59
2023/08/01 04:55:21;;;;;;;27.90;14.88;;;;;;;;;;5036413;28;20409;-59
2023/08/01 04:57:48;;;;;;;24.20;15.07;;;;;;;;;;5025774;28;20819;-59
2023/08/01 05:00:16;;;;;;;28.17;14.90;;;;;;;;;;5028528;28;20430;-59
2023/08/01 05:02:43;;;;;;;26.33;15.65;;;;;;;;;;5021250;28;20449;-59
2023/08/01 05:05:11;;;;;;;30.80;15.80;;;;;;;;;;5028317;28;20894;-57
2023/08/01 05:07:38;;;;;;;25.83;15.48;;;;;;;;;;5023449;28;20431;-58
2023/08/01 05:10:05;;;;;;;25.80;15.75;;;;;;;;;;5020907;28;20415;-58
2023/08/01 05:12:32;;;;;;;25.93;16.30;;;;;;;;;;5024880;28;20840;-60
2023/08/01 05:14:59;;;;;;;31.48;16.65;;;;;;;;;;5019131;28;20514;-56
2023/08/01 05:17:26;;;;;;;29.15;17.15;;;;;;;;;;5025358;28;20825;-52
2023/08/01 05:19:55;;;;;;;29.75;17.15;;;;;;;;;;5028122;28;20415;-55
2023/08/01 05:22:23;;;;;;;32.20;18.80;;;;;;;;;;5024904;28;20419;-58
2023/08/01 05:24:50;;;;;;;37.30;20.38;;;;;;;;;;5016268;28;20448;-58
2023/08/01 05:27:17;;;;;;;34.03;21.48;;;;;;;;;;5021274;28;20427;-58
2023/08/01 05:29:44;;;;;;;34.30;22.20;;;;;;;;;;5021878;28;20407;-59
2023/08/01 05:32:11;;;;;;;36.65;22.85;;;;;;;;;;5019842;28;21133;-58
2023/08/01 05:34:38;;;;;;;38.67;22.88;;;;;;;;;;5022687;28;20415;-58
2023/08/01 05:37:05;;;;;;;35.85;23.00;;;;;;;;;;5021550;28;20419;-58
2023/08/01 05:39:34;;;;;;;38.50;23.30;;;;;;;;;;5023055;28;20464;-57
2023/08/01 05:42:01;;;;;;;36.13;24.05;;;;;;;;;;5024686;28;20913;-58
2023/08/01 05:44:28;;;;;;;38.33;23.60;;;;;;;;;;5020713;28;20514;-58
2023/08/01 05:46:55;;;;;;;37.63;23.38;;;;;;;;;;5023517;28;20522;-56
2023/08/01 05:49:22;;;;;;;36.83;22.90;;;;;;;;;;5018711;28;20425;-57
2023/08/01 05:51:49;;;;;;;39.70;23.27;;;;;;;;;;5023776;28;20415;-57
2023/08/01 05:54:16;;;;;;;40.42;23.35;;;;;;;;;;5020253;28;20432;-56
2023/08/01 05:56:44;;;;;;;39.87;23.03;;;;;;;;;;5027600;28;20476;-57
2023/08/01 05:59:11;;;;;;;38.95;23.38;;;;;;;;;;5026097;28;20419;-57
2023/08/01 06:01:38;;;;;;;38.90;23.98;;;;;;;;;;5030079;28;20987;-59
2023/08/01 06:04:05;;;;;;;39.70;23.25;;;;;;;;;;5024322;28;20921;-58
2023/08/01 06:06:32;;;;;;;36.80;22.87;;;;;;;;;;5026304;28;20431;-55
2023/08/01 06:08:59;;;;;;;35.90;22.75;;;;;;;;;;5025713;28;20901;-58
2023/08/01 06:11:26;;;;;;;35.13;22.70;;;;;;;;;;5025380;28;20408;-58
2023/08/01 06:13:55;;;;;;;37.85;23.63;;;;;;;;;;5025611;28;20421;-57
2023/08/01 06:16:22;;;;;;;33.72;21.17;;;;;;;;;;5031010;28;20430;-57
2023/08/01 06:18:49;;;;;;;34.33;21.75;;;;;;;;;;5022798;28;20419;-59
2023/08/01 06:21:16;;;;;;;38.47;24.33;;;;;;;;;;5027988;28;20482;-57
2023/08/01 06:23:43;;;;;;;35.03;23.77;;;;;;;;;;5023027;28;20477;-58
2023/08/01 06:26:10;;;;;;;37.05;23.38;;;;;;;;;;5024181;28;20478;-59
2023/08/01 06:28:37;;;;;;;38.85;23.65;;;;;;;;;;5024861;28;20586;-59
2023/08/01 06:31:05;;;;;;;38.78;23.05;;;;;;;;;;5026102;28;20411;-58
2023/08/01 06:33:32;;;;;;;38.97;23.30;;;;;;;;;;5025499;28;20480;-58
2023/08/01 06:35:59;;;;;;;32.93;22.00;;;;;;;;;;5029876;28;20414;-58
2023/08/01 06:38:26;;;;;;;40.83;23.15;;;;;;;;;;5029141;28;20427;-59
2023/08/01 06:40:53;;;;;;;30.35;20.48;;;;;;;;;;5030209;28;21156;-55
2023/08/01 06:43:20;;;;;;;31.52;20.90;;;;;;;;;;5023905;28;20447;-58
2023/08/01 06:45:47;;;;;;;30.05;20.00;;;;;;;;;;5028034;28;20419;-58
2023/08/01 06:48:15;;;;;;;30.13;19.05;;;;;;;;;;5026051;28;20426;-58
2023/08/01 06:50:42;;;;;;;33.10;19.15;;;;;;;;;;5029529;28;20809;-58
2023/08/01 06:53:09;;;;;;;34.00;20.13;;;;;;;;;;5024741;28;20460;-56
2023/08/01 06:55:36;;;;;;;30.58;19.50;;;;;;;;;;5030125;28;20415;-59
2023/08/01 06:58:03;;;;;;;30.63;19.00;;;;;;;;;;5024778;28;20884;-59
2023/08/01 07:00:30;;;;;;;29.70;18.17;;;;;;;;;;5031961;28;20426;-58
2023/08/01 07:02:57;;;;;;;25.60;17.48;;;;;;;;;;5025079;28;20903;-58
2023/08/01 07:05:26;;;;;;;29.58;17.92;;;;;;;;;;5023624;28;20426;-59
2023/08/01 07:07:53;;;;;;;27.03;17.67;;;;;;;;;;5023324;28;20428;-57
2023/08/01 07:10:20;;;;;;;26.27;16.85;;;;;;;;;;5026395;28;20417;-57
2023/08/01 07:12:47;;;;;;;26.30;17.03;;;;;;;;;;5028877;28;20502;-57
2023/08/01 07:15:14;;;;;;;25.90;17.00;;;;;;;;;;5023518;28;20455;-57
2023/08/01 07:17:41;;;;;;;21.92;16.25;;;;;;;;;;5026251;28;20422;-59
2023/08/01 07:20:09;;;;;;;27.77;17.05;;;;;;;;;;5027541;28;20417;-54
2023/08/01 07:22:37;;;;;;;26.25;16.50;;;;;;;;;;5023830;28;20432;-64
2023/08/01 07:25:05;;;;;;;25.83;16.10;;;;;;;;;;5022299;28;20417;-59
2023/08/01 07:27:32;;;;;;;22.35;16.45;;;;;;;;;;5033741;28;20419;-59
2023/08/01 07:29:59;;;;;;;23.23;15.65;;;;;;;;;;5029019;28;20419;-61
2023/08/01 07:32:26;;;;;;;23.13;14.50;;;;;;;;;;5029660;28;20419;-61
2023/08/01 07:34:53;;;;;;;22.25;14.95;;;;;;;;;;5024298;28;20426;-60
2023/08/01 07:37:20;;;;;;;21.45;13.68;;;;;;;;;;5021967;28;20456;-61
2023/08/01 07:39:48;;;;;;;22.38;13.68;;;;;;;;;;5027869;28;20415;-61
2023/08/01 07:42:15;;;;;;;23.13;14.53;;;;;;;;;;5026676;28;20914;-59
2023/08/01 07:44:42;;;;;;;23.00;14.80;;;;;;;;;;5031666;28;20473;-61
2023/08/01 07:47:09;;;;;;;24.08;14.20;;;;;;;;;;5025971;28;20414;-59
2023/08/01 07:49:36;;;;;;;22.08;13.93;;;;;;;;;;5026513;28;20419;-59
2023/08/01 07:52:03;;;;;;;21.02;12.98;;;;;;;;;;5026473;28;20482;-60
2023/08/01 07:54:30;;;;;;;17.33;11.80;;;;;;;;;;5027819;28;20978;-58
2023/08/01 07:56:58;;;;;;;20.98;12.45;;;;;;;;;;5027517;28;20472;-60
2023/08/01 07:59:25;;;;;;;19.33;12.27;;;;;;;;;;5023919;28;20432;-59
2023/08/01 08:01:53;;;;;;;17.70;11.80;;;;;;;;;;5026862;28;20427;-60
2023/08/01 08:04:20;;;;;;;18.20;11.38;;;;;;;;;;5023419;28;20413;-59
2023/08/01 08:06:47;;;;;;;18.40;10.55;;;;;;;;;;5029478;28;20419;-59
2023/08/01 08:09:14;;;;;;;15.98;10.43;;;;;;;;;;5023303;28;20424;-60
2023/08/01 08:11:41;;;;;;;15.50;10.65;;;;;;;;;;5041275;28;20870;-59
2023/08/01 08:14:11;;;;;;;14.90;10.60;;;;;;;;;;5027806;28;20441;-60
2023/08/01 08:16:38;;;;;;;16.73;10.40;;;;;;;;;;5026141;28;20541;-59
2023/08/01 08:19:05;;;;;;;19.20;11.32;;;;;;;;;;5023866;28;20416;-60
2023/08/01 08:21:32;;;;;;;15.88;9.68;;;;;;;;;;5027950;28;20426;-60
2023/08/01 08:23:59;;;;;;;17.30;9.35;;;;;;;;;;5021941;28;20486;-59
2023/08/01 08:26:26;;;;;;;15.80;10.10;;;;;;;;;;5033125;28;20409;-58
2023/08/01 08:28:53;;;;;;;17.45;10.50;;;;;;;;;;5037582;28;20429;-59
2023/08/01 08:31:22;;;;;;;15.45;9.48;;;;;;;;;;5030130;28;20417;-58
2023/08/01 08:33:49;;;;;;;13.82;9.57;;;;;;;;;;5022568;28;20422;-59
2023/08/01 08:36:16;;;;;;;14.65;9.52;;;;;;;;;;5025174;28;20474;-58
2023/08/01 08:38:43;;;;;;;15.93;10.00;;;;;;;;;;5024437;28;20446;-59
2023/08/01 08:41:10;;;;;;;15.00;9.43;;;;;;;;;;5032765;28;20538;-60
2023/08/01 08:43:38;;;;;;;15.00;9.30;;;;;;;;;;5025100;28;20474;-59
2023/08/01 08:46:06;;;;;;;13.70;9.35;;;;;;;;;;5027118;28;20450;-59
2023/08/01 08:48:34;;;;;;;15.38;9.27;;;;;;;;;;5023643;28;20415;-57
2023/08/01 08:51:01;;;;;;;17.48;9.18;;;;;;;;;;5023045;28;20916;-60
2023/08/01 08:53:29;;;;;;;13.93;9.07;;;;;;;;;;5025451;28;20422;-59
2023/08/01 08:55:56;;;;;;;16.52;9.10;;;;;;;;;;5026346;28;20522;-59
2023/08/01 08:58:23;;;;;;;14.38;8.75;;;;;;;;;;5022136;28;20416;-60
2023/08/01 09:00:50;;;;;;;13.57;8.88;;;;;;;;;;5027167;28;20454;-60
2023/08/01 09:03:17;;;;;;;12.27;9.18;;;;;;;;;;5026273;28;20431;-59
2023/08/01 09:05:49;;;;;;;15.90;9.17;;;;;;;;;;5028635;28;20454;-59
2023/08/01 09:08:17;;;;;;;15.98;9.30;;;;;;;;;;5024449;28;20407;-59
2023/08/01 09:10:45;;;;;;;15.70;9.15;;;;;;;;;;5032943;28;20409;-60
2023/08/01 09:13:12;;;;;;;12.93;8.52;;;;;;;;;;5032637;28;20412;-59
2023/08/01 09:15:39;;;;;;;14.02;8.13;;;;;;;;;;5039717;28;20423;-58
2023/08/01 09:18:07;;;;;;;13.48;7.75;;;;;;;;;;5024604;28;20821;-59
2023/08/01 09:20:40;;;;;;;12.43;7.90;;;;;;;;;;5025426;28;20904;-60
2023/08/01 09:23:11;;;;;;;11.55;7.47;;;;;;;;;;5023167;28;20439;-59
2023/08/01 09:25:39;;;;;;;11.10;7.22;;;;;;;;;;5019785;28;20502;-60
2023/08/01 09:28:16;;;;;;;11.35;7.30;;;;;;;;;;5024140;28;20426;-58
2023/08/01 09:30:47;;;;;;;13.05;7.22;;;;;;;;;;5025384;28;20786;-59
2023/08/01 09:33:14;;;;;;;9.95;6.93;;;;;;;;;;5024753;28;20846;-60
2023/08/01 09:35:41;;;;;;;12.55;6.97;;;;;;;;;;5024563;28;20411;-59
2023/08/01 09:38:08;;;;;;;11.00;6.57;;;;;;;;;;5023816;28;20418;-59
2023/08/01 09:40:38;;;;;;;9.45;6.10;;;;;;;;;;5023964;28;20415;-60
2023/08/01 09:43:05;;;;;;;11.57;6.30;;;;;;;;;;5030630;28;20431;-59
2023/08/01 09:45:34;;;;;;;9.93;6.10;;;;;;;;;;5025696;28;20918;-59
2023/08/01 09:48:01;;;;;;;11.00;6.18;;;;;;;;;;5027685;28;20458;-58
2023/08/01 09:50:28;;;;;;;12.15;5.38;;;;;;;;;;5022506;28;20417;-60
2023/08/01 09:52:55;;;;;;;8.82;5.30;;;;;;;;;;5024952;28;20450;-59
2023/08/01 09:55:26;;;;;;;10.05;5.13;;;;;;;;;;5021578;28;20967;-59
2023/08/01 09:57:56;;;;;;;8.37;5.20;;;;;;;;;;5027451;28;20979;-59
2023/08/01 10:00:23;;;;;;;7.10;4.85;;;;;;;;;;5021108;28;20424;-58
2023/08/01 10:02:53;;;;;;;8.77;4.67;;;;;;;;;;5027366;28;20431;-59
2023/08/01 10:05:20;;;;;;;8.30;5.25;;;;;;;;;;5025220;28;20434;-59
2023/08/01 10:07:48;;;;;;;8.38;4.82;;;;;;;;;;5027002;28;20462;-59
2023/08/01 10:10:17;;;;;;;6.28;4.32;;;;;;;;;;5020055;28;20424;-60
2023/08/01 10:12:47;;;;;;;8.35;4.35;;;;;;;;;;5029912;28;20955;-60
2023/08/01 10:15:16;;;;;;;7.13;4.60;;;;;;;;;;5028739;28;20423;-61
2023/08/01 10:17:44;;;;;;;8.45;5.15;;;;;;;;;;5031622;28;20453;-62
2023/08/01 10:20:12;;;;;;;7.38;5.63;;;;;;;;;;5021734;28;20477;-62
2023/08/01 10:22:39;;;;;;;11.43;7.25;;;;;;;;;;5025742;28;20437;-61
2023/08/01 10:25:07;;;;;;;11.95;6.90;;;;;;;;;;5022301;28;20415;-61
2023/08/01 10:27:35;;;;;;;11.48;7.55;;;;;;;;;;5026976;28;20415;-62
2023/08/01 10:30:03;;;;;;;12.60;7.90;;;;;;;;;;5022794;28;20426;-59
2023/08/01 10:32:35;;;;;;;11.20;7.65;;;;;;;;;;5024366;28;20413;-60
2023/08/01 10:35:02;;;;;;;13.68;8.00;;;;;;;;;;5022092;28;20866;-59
2023/08/01 10:37:40;;;;;;;13.55;8.65;;;;;;;;;;5023249;28;20421;-60
2023/08/01 10:40:08;;;;;;;13.10;8.27;;;;;;;;;;5022829;28;20534;-61
2023/08/01 10:42:41;;;;;;;11.43;7.28;;;;;;;;;;5030087;28;20512;-59
2023/08/01 10:45:09;;;;;;;10.02;6.70;;;;;;;;;;5032798;28;20452;-62
2023/08/01 10:47:37;;;;;;;11.05;6.30;;;;;;;;;;5030430;28;20829;-60
2023/08/01 10:50:14;;;;;;;10.07;6.53;;;;;;;;;;5027232;28;20427;-62
2023/08/01 10:52:41;;;;;;;8.40;5.70;;;;;;;;;;5025189;28;20793;-61
2023/08/01 10:55:08;;;;;;;8.52;5.70;;;;;;;;;;5026985;28;20446;-61
2023/08/01 10:57:36;;;;;;;11.63;5.70;;;;;;;;;;5026139;28;20430;-62
2023/08/01 11:00:04;;;;;;;9.43;5.75;;;;;;;;;;5027311;28;20797;-62
2023/08/01 11:02:32;;;;;;;8.30;5.13;;;;;;;;;;5025317;28;20937;-60
2023/08/01 11:05:01;;;;;;;8.88;5.63;;;;;;;;;;5027208;28;20794;-60
2023/08/01 11:07:29;;;;;;;8.88;6.00;;;;;;;;;;5029365;28;20419;-68
2023/08/01 11:10:05;;;;;;;8.25;5.70;;;;;;;;;;5028993;28;20415;-61
2023/08/01 11:12:34;;;;;;;8.23;5.05;;;;;;;;;;5029156;28;20498;-59
2023/08/01 11:15:01;;;;;;;9.27;5.20;;;;;;;;;;5043984;28;20891;-60
2023/08/01 11:17:28;;;;;;;7.60;5.00;;;;;;;;;;5024851;28;20419;-60
2023/08/01 11:20:04;;;;;;;9.00;5.60;;;;;;;;;;5029448;28;20422;-61
2023/08/01 11:22:31;;;;;;;7.13;5.57;;;;;;;;;;5028024;28;20437;-61
2023/08/01 11:24:58;;;;;;;9.73;6.43;;;;;;;;;;5028538;28;20422;-61
2023/08/01 11:27:25;;;;;;;11.93;6.15;;;;;;;;;;5024840;28;20505;-62
2023/08/01 11:29:52;;;;;;;11.20;6.65;;;;;;;;;;5026102;28;20415;-60
2023/08/01 11:32:20;;;;;;;12.63;7.38;;;;;;;;;;5024239;28;20487;-61
2023/08/01 11:34:48;;;;;;;9.73;5.57;;;;;;;;;;5028349;28;20411;-60
2023/08/01 11:37:17;;;;;;;10.48;6.22;;;;;;;;;;5027207;28;20997;-61
2023/08/01 11:39:44;;;;;;;7.90;5.75;;;;;;;;;;5029704;28;20793;-61
2023/08/01 11:42:15;;;;;;;9.05;5.82;;;;;;;;;;5025155;28;20427;-61
2023/08/01 11:44:42;;;;;;;8.93;5.70;;;;;;;;;;5024980;28;20791;-61
2023/08/01 11:47:11;;;;;;;10.70;5.78;;;;;;;;;;5029301;28;20419;-61
2023/08/01 11:49:38;;;;;;;8.63;5.82;;;;;;;;;;5032997;28;20421;-61
2023/08/01 11:52:06;;;;;;;8.75;5.70;;;;;;;;;;5027252;28;20905;-61
2023/08/01 11:54:44;;;;;;;7.25;5.35;;;;;;;;;;5031234;28;20747;-60
2023/08/01 11:57:11;;;;;;;9.13;5.45;;;;;;;;;;5029229;28;20423;-61
2023/08/01 11:59:47;;;;;;;9.93;5.72;;;;;;;;;;5031639;28;20415;-61
2023/08/01 12:02:21;;;;;;;10.27;5.93;;;;;;;;;;5025537;28;20441;-61
2023/08/01 12:04:48;;;;;;;9.15;5.38;;;;;;;;;;5025613;28;20407;-60
2023/08/01 12:07:16;;;;;;;9.32;5.22;;;;;;;;;;5030356;28;20477;-61
2023/08/01 12:09:44;;;;;;;9.23;5.40;;;;;;;;;;5030844;28;20419;-60
2023/08/01 12:12:11;;;;;;;9.35;5.70;;;;;;;;;;5027810;28;20410;-60
2023/08/01 12:14:41;;;;;;;7.50;5.28;;;;;;;;;;5035342;28;20476;-60
2023/08/01 12:17:08;;;;;;;8.02;5.30;;;;;;;;;;5024531;28;20419;-61
2023/08/01 12:19:35;;;;;;;13.50;5.65;;;;;;;;;;5024553;28;20412;-61
2023/08/01 12:22:02;;;;;;;9.68;6.35;;;;;;;;;;5025976;28;20750;-61
2023/08/01 12:24:29;;;;;;;10.77;5.85;;;;;;;;;;5024875;28;20431;-61
2023/08/01 12:26:57;;;;;;;11.20;6.20;;;;;;;;;;5026171;28;20415;-60
2023/08/01 12:29:24;;;;;;;10.40;6.35;;;;;;;;;;5024668;28;21001;-61
2023/08/01 12:31:51;;;;;;;10.13;6.50;;;;;;;;;;5030294;28;20427;-59
2023/08/01 12:34:18;;;;;;;11.27;6.63;;;;;;;;;;5021966;28;20421;-61
2023/08/01 12:36:45;;;;;;;8.98;6.82;;;;;;;;;;5029112;28;20419;-61
2023/08/01 12:39:12;;;;;;;9.55;6.45;;;;;;;;;;5025029;28;20482;-60
2023/08/01 12:41:39;;;;;;;12.27;6.80;;;;;;;;;;5028106;28;20457;-61
2023/08/01 12:44:08;;;;;;;10.25;6.10;;;;;;;;;;5024309;28;20433;-61
2023/08/01 12:46:35;;;;;;;10.90;6.30;;;;;;;;;;5019592;28;20424;-61
2023/08/01 12:49:02;;;;;;;11.48;6.60;;;;;;;;;;5025550;28;20885;-61
2023/08/01 12:51:29;;;;;;;11.30;6.05;;;;;;;;;;5030064;28;20802;-60
2023/08/01 12:53:56;;;;;;;11.68;6.80;;;;;;;;;;5020477;28;20415;-59
2023/08/01 12:56:23;;;;;;;10.65;7.00;;;;;;;;;;5014397;28;20905;-59
2023/08/01 12:58:50;;;;;;;11.35;6.70;;;;;;;;;;5019277;28;20775;-61
2023/08/01 13:01:18;;;;;;;12.90;6.70;;;;;;;;;;5023498;28;20480;-58
2023/08/01 13:03:45;;;;;;;9.30;6.72;;;;;;;;;;5027818;28;20430;-60
2023/08/01 13:06:13;;;;;;;10.18;6.50;;;;;;;;;;5027994;28;20419;-58
2023/08/01 13:08:40;;;;;;;9.27;5.63;;;;;;;;;;5023006;28;20489;-62
2023/08/01 13:11:13;;;;;;;10.68;5.00;;;;;;;;;;5023547;28;20410;-61
2023/08/01 13:13:41;;;;;;;8.98;5.10;;;;;;;;;;5028343;28;20419;-57
2023/08/01 13:16:08;;;;;;;10.13;5.55;;;;;;;;;;5026933;28;20433;-59
2023/08/01 13:18:43;;;;;;;10.65;5.18;;;;;;;;;;5025221;28;20419;-59
2023/08/01 13:21:10;;;;;;;9.25;4.15;;;;;;;;;;5025487;28;20426;-59
2023/08/01 13:23:37;;;;;;;7.50;4.13;;;;;;;;;;5024897;28;20502;-59
2023/08/01 13:26:04;;;;;;;7.22;4.38;;;;;;;;;;5021079;28;20461;-58
2023/08/01 13:28:31;;;;;;;6.18;3.20;;;;;;;;;;5023894;28;20417;-60
2023/08/01 13:30:58;;;;;;;5.75;3.50;;;;;;;;;;5024985;28;20836;-59
2023/08/01 13:33:24;;;;;;;4.68;3.30;;;;;;;;;;5023046;28;20411;-59
2023/08/01 13:35:54;;;;;;;6.55;3.42;;;;;;;;;;5027368;28;20469;-62
2023/08/01 13:38:21;;;;;;;6.90;3.05;;;;;;;;;;5022119;28;20433;-58
2023/08/01 13:40:48;;;;;;;5.37;2.40;;;;;;;;;;5025358;28;20601;-59
2023/08/01 13:43:15;;;;;;;6.10;2.42;;;;;;;;;;5025868;28;20909;-59
2023/08/01 13:45:42;;;;;;;5.82;2.28;;;;;;;;;;5028456;28;20419;-59
2023/08/01 13:48:09;;;;;;;5.53;2.58;;;;;;;;;;5025136;28;20419;-59
2023/08/01 13:50:36;;;;;;;5.43;2.47;;;;;;;;;;5024782;28;20824;-59
2023/08/01 13:53:07;;;;;;;8.68;3.33;;;;;;;;;;5025775;28;20474;-60
2023/08/01 13:55:34;;;;;;;5.60;2.60;;;;;;;;;;5023068;28;20412;-59
2023/08/01 13:58:01;;;;;;;5.38;2.88;;;;;;;;;;5025370;28;20411;-58
2023/08/01 14:00:28;;;;;;;6.07;2.88;;;;;;;;;;5021840;28;20859;-58
2023/08/01 14:02:55;;;;;;;8.05;2.97;;;;;;;;;;5025110;28;20430;-57
2023/08/01 14:05:22;;;;;;;6.00;2.60;;;;;;;;;;5021410;28;20412;-58
2023/08/01 14:07:50;;;;;;;5.78;2.70;;;;;;;;;;5024325;28;20419;-60
2023/08/01 14:10:18;;;;;;;6.68;2.58;;;;;;;;;;5020222;28;20769;-59
2023/08/01 14:12:45;;;;;;;7.45;2.80;;;;;;;;;;5027245;28;20413;-59
2023/08/01 14:15:12;;;;;;;5.30;2.55;;;;;;;;;;5024317;28;20425;-59
2023/08/01 14:17:40;;;;;;;6.00;2.50;;;;;;;;;;5030065;28;20426;-59
2023/08/01 14:20:07;;;;;;;5.47;2.30;;;;;;;;;;5024923;28;20498;-61
2023/08/01 14:22:34;;;;;;;7.32;2.53;;;;;;;;;;5030037;28;20451;-60
2023/08/01 14:25:01;;;;;;;7.55;2.20;;;;;;;;;;5025164;28;20533;-64
2023/08/01 14:27:30;;;;;;;5.70;2.37;;;;;;;;;;5029715;28;20499;-64
2023/08/01 14:29:57;;;;;;;5.80;2.20;;;;;;;;;;5021897;28;20407;-64
2023/08/01 14:32:24;;;;;;;4.53;1.90;;;;;;;;;;5027376;28;20416;-64